Logs for Steve Ratzlaff, S Tucson, AZ, USA [DM42me]
Paging Controls
Date UTC KHz ID Location S/P ITU Region GSQ LSB USB Sec. Fmt. Power KM Miles
2004-02-21 0759 400 PIE Piedecuesta / Bucaramanga (Santander) CLM sa FJ36kv 855 4816 2992
2004-02-21 0741 480 RW Seven Lakes CO USA na DM78 50 885 550
2004-02-21 0711 420 CFY 'Evans' Lake City SC USA na FM03cu 1025 25 2900 1802
2004-02-21 0640 253 YTF Alma QC CAN na FN48em 395 25 3739 2323
2004-02-21 0635 249 LYD 'Lakeside' Houston TX USA na EL29dt 1000 25 1476 917
2004-02-21 0623 263 BF 'Creve' Scottsbluff NE USA na DN81gt 1060 25 1259 782
2004-02-21 0620 260 CL 'Rowdy' College Station TX USA na EM10tl 1060 1397 868
2004-02-21 0618 260 AVZ 'Travis' Terrell TX USA na EM12vs 1015 25 1384 860
2004-02-21 0610 245 CRR Circle MT USA na DN77fk 1010 1756 1091
2004-02-21 0555 227 TNZ 'Lawrence Co.' Walnut Ridge AR USA na EM46me 1015 25 1889 1173
2004-02-21 0552 227 LCE 'Goloson' La Ceiba (Atlantida) HND ca EK65nr 1025 1030 400 3042 1890
2004-02-21 0548 271 IBO Idabel OK USA na EM23nv 1020 1509 938
2004-02-21 0535 414 IEB Lebanon MO USA na EM37qn 1030 1772 1101
2004-02-21 0534 414 SU 'Salix' Sioux City IA USA na EN12uh 1060 40 1714 1065
2004-02-21 0534 414 MSD Mansfield LA USA na EM32cb 1040 25 1615 1003
2004-02-21 0530 414 DUX 'Durrett' Dumas TX USA na DM85xu 1010 25 917 570
2004-02-21 0527 410 MSB 'Monarch' Iola KS USA na EM27hs 1040 25 1547 961
2004-02-21 0517 404 OLF Wolf Point MT USA na DN78ec 1025 100 1825 1134
2004-02-21 0514 404 HU 'Saltt' Hutchinson KS USA na EM18ac 1050 25 1351 839
2004-02-21 0508 403 MFS 'Horseshoe Bay Resort' Marble Falls TX USA na EM00tm 1020 1208 751
2004-02-21 0501 403 AXA Algona IA USA na EN23ub 1055 25 1895 1178
2004-02-21 0435 382 VKS Vicksburg MS USA na EM42mf 1015 1879 1167
2004-02-21 0435 382 VCY Valley City ND USA na EN16bv 1025 22.5 1977 1228
2004-02-21 0427 380 OEL Oakley KS USA na DM99oc 960 25 1196 743
2004-02-21 0416 365 PBC 'Maury Co' Columbia / Mount Pleasant TN USA na EM65ko 1025 25 2226 1383
2004-02-21 0407 329 CH 'Ashly' Charleston SC USA na EM92wx 1045 400 2879 1789
2004-02-21 0402 204 RMD 'Mc Dermitt State' Mc Dermitt OR USA na DN12da 1030 25 1245 774
2004-02-21 0401 255 FYE Somerville TN USA na EM55he 1030 2020 1255
2004-02-21 0400 254 ILJ 'Willard' Springfield MO USA na EM37gh 1035 1694 1052
2004-02-21 0346 253 UR 'Vinee' Burbank CA USA na DM04te 0 25 725 450
2004-02-21 0340 245 BKD Breckenridge TX USA na EM02nr 1015 25 1134 705
2004-02-21 391 RKP Rockport TX USA na EL18lc 1050 1030 25 1411 877
2004-02-19 1406 368 PHG Phillipsburg KS USA na EM09iq 1010 25 1339 832
2004-02-18 0728 242 BKZ Brinkley AR USA na EM44jv ~1020 25 1852 1150
2004-02-18 0713 233 HR 'Bakky' Harrison AR USA na EM36kd 1030 1696 1054
2004-02-18 0707 227 TNZ 'Lawrence Co.' Walnut Ridge AR USA na EM46me 1020 25 1889 1173
2004-02-18 0654 294 BMC Brigham City UT USA na 1020 1042 647
2004-02-18 0629 365 PAL Palma EQA sa FI07cx 1020 1000 5022 3120
2004-02-18 0627 415 SLS Salinas (Guayas) EQA sa EI97mt 1010 4958 3080
2004-02-18 0622 400 PIE Piedecuesta / Bucaramanga (Santander) CLM sa FJ36kv 855 4816 2992
2004-02-18 0614 369 ZDX Coolidge Saint Johns ATG ca FK97cd 1020 700 5192 3226
2004-02-18 0606 350 DAV David (Chiriqui) PNR ca EJ88sj 1035 100 3953 2456
2004-02-18 0552 268 UBY Bayamo (Granma) CUB ca FL10qj 1225 50 3645 2265
2004-02-18 0547 345 BGI Bridgetown / Barbados Island BRB ca GK03gb 1025 5635 3501
2004-02-18 0546 387 PV Providenciales TCA ca FL31us 1045 3978 2472
2004-02-18 0523 260 HOR Horcones (Heredia) CTR ca EJ79ux 1075 1000 3686 2290
2004-02-18 0515 232 GT 'Grand Turk' Cockburn Town (Grand Turk Island) TCA ca FL41kk 1040 4103 2549
2004-02-17 0618 387 PV Providenciales TCA ca FL31us 1045 3978 2472
2004-02-17 0616 382 POS Port Of Spain TRD ca FK90go 1070 5596 3477
2004-02-17 0608 375 GUA Guatemala City GTM ca EK44ro 945 50 2846 1768
2004-02-17 0605 353 UHG Holguin (Holguin) CUB ca FL10tr 845 800 3651 2268
2004-02-17 0602 340 BOG Bogota (Cundinamarca) CLM sa FJ24uu 1025 4872 3027
2004-02-17 0545 230 UCL Cayo Largo Del Sur (Cayo Largo) CUB ca EL91fo 1050 800 3132 1946
2004-02-14 1309 269 ISB Sibley IA USA na EN23ci 1020 25 1816 1128
2004-02-14 1307 269 SWT Seward NE USA na EN10ku 1020 25 1564 972
2004-02-14 1229 275 IKV Ankeny IA USA na EN31fq 1005 25 1868 1161
2004-02-14 1136 395 JM 'Sabon' Jamestown ND USA na EN06ru 1055 1942 1207
2004-02-14 1132 379 FSK Fort Scott KS USA na EM27ot 1075 25 1597 992
2004-02-14 1131 379 UNE 'Union County' Creston IA USA na EN20tw 1035 1767 1098
2004-02-14 1123 353 DI 'Noson' Dickinson ND USA na DN86pq 1050 25 1758 1092
2004-02-14 1110 362 HBK Hinchinbrook AK ALS na BP60wj 1030 1000 4046 2514
2004-02-14 1104 353 LLD Lanai HI HWA oc BL10ms 1015 2000 4712 2928
2004-02-14 1059 332 POA Pahoa HI HWA oc BK29mn 1015 400 4584 2848
2004-02-14 0533 280 IPA Rapa Nui (Easter Island) (Isla de Pascua) PAQ oc DG52gu 1030 3000 6598 4099
2004-02-14 0526 415 SLS Salinas (Guayas) EQA sa EI97mt 1010 4958 3080
2004-02-14 0525 365 PAL Palma EQA sa FI07cx 1020 1000 5022 3120
2004-02-14 0523 400 PIE Piedecuesta / Bucaramanga (Santander) CLM sa FJ36kv 860 4816 2992
2004-02-14 0442 341 HRX Hereford TX USA na DM84uu 1020 25 856 532
2004-02-14 0330 332 FIS 'Fish Hook' Key West FL USA na EL94cn 1040 400 2966 1843
2004-02-14 0327 341 CQN 'Daisy' Chattanooga TN USA na EM75kd 1040 50 2406 1495
2004-02-14 0319 287 ME 'Elvis' Memphis TN USA na EM45xb 1030 1959 1217
2004-02-14 0315 329 AEY Waverly TN USA na EM66dc 1030 25 2178 1353
2004-02-12 1355 216 DPY Deer Park WA USA na DN17gx 1025 25 1839 1143
2004-02-12 1332 300 LAP La Paz (Baja California) MEX ca DL44tb 1005 1000 905 562
2004-02-12 0319 343 DMD 'Dimmit County' Carrizo Springs TX USA na EL08cm 1020 25 1145 712
2004-02-12 0314 266 AGO Magnolia AR USA na EM33jf 1040 25 1662 1033
2004-02-12 0308 400 PIE Piedecuesta / Bucaramanga (Santander) CLM sa FJ36kv 850 4816 2992
2004-02-12 0305 283 UZG 'Zarago' Zaragoza (Ciudad de la Habana) CUB ca EL82xw 1285 250 3018 1875
2004-02-11 1001 343 YGO Gods Lake Narrows MB CAN na EO24sn 405 25 2806 1744
2004-02-11 0954 346 N9 'Tumbler' Tumbler Ridge BC CAN na CO95ma 405 405 2657 1651
2004-02-11 0937 361 HI Holman NT CAN na DQ10cs 410 4309 2678
2004-02-11 0922 373 2P Fox Creek (Chevron) AB CAN na DO14qc 425 200 2477 1539
2004-02-11 0917 375 8H Saint Paul AB CAN na DO43hx 395 50 2423 1505
2004-02-11 0844 405 2K Camrose AB CAN na DO33oa 395 2321 1442
2004-02-11 0759 393 8N Edson AB CAN na DO13sn 375 50 2416 1501
2004-02-11 0746 380 GR 'Sancy' Grand Island NE USA na EN00uu 1020 1483 922
2004-02-11 0737 380 UMB 'Culvr' Milledgeville GA USA na EM83kd 1010 25 2599 1615
2004-02-11 0704 208 CHQ Charleston MO USA na EM56hu 1020 2039 1267
2004-02-11 0657 385 JD 'Gooey' Belleville IL USA na EM58dl 1055 2045 1270
2004-02-11 0639 360 JDN 'Jardin' Caramanto CLM sa FJ25eo 1020 4707 2925
2004-02-11 0630 362 EE 'Merle' Ames IA USA na EN31ev ~1050 1873 1164
2004-02-11 0616 365 PAL Palma EQA sa FI07cx 1015 1000 5022 3120
2004-02-11 0614 365 FKV 'Flowery Branch' Gainesville GA USA na EM84be 1015 25 2522 1567
2004-02-11 0609 366 EZM Eastman GA USA na EM82kd 1030 25 2612 1623
2004-02-11 0552 412 CMY 'Mc Coy' Sparta WI USA na EN43qw 1055 10 2198 1365
2004-02-11 0547 420 MOT Unknown XUU xx 1090
2004-02-11 0535 283 UZG 'Zarago' Zaragoza (Ciudad de la Habana) CUB ca EL82xw 1290 250 3018 1875
2004-02-11 0531 279 ON 'Music' Springfield TN USA na EN66mk 1045 2585 1606
2004-02-11 0505 423 SIF 'Slammer' Reidsville NC USA na FM06cj 1025 25 2888 1794
2004-02-11 0410 226 REN Warren AR USA na EM33wn ~1015 25 1763 1095
2004-02-11 0357 423 PCW Port Clinton OH USA na EN81nm 1010 25 2690 1671
2004-02-11 0350 423 OC 'Jumpi' Ocala FL USA na EL89vb 1035 2764 1717
2004-02-11 0334 404 IMS Madison IN USA na EM78gs 1050 25 2413 1499
2004-02-11 0315 400 PIE Piedecuesta / Bucaramanga (Santander) CLM sa FJ36kv 850 4816 2992
2004-02-11 0314 415 SLS Salinas (Guayas) EQA sa EI97mt 4958 3080
2004-02-11 0311 420 CFY 'Evans' Lake City SC USA na FM03cu 1020 25 2900 1802
2004-02-11 0204 402 SYG 'Sandy Point' Houston TX USA na EL29gm ~1015 1507 937
2004-02-10 0601 280 QX Gander NL CAN na GN28px 1000 4972 3090
2004-02-10 0601 281 CA Cartwright NL CAN na GO13lr 1000 4846 3011
2004-02-10 0553 390 JT Stephenville NL CAN na GN08on 450 4672 2903
2004-02-10 0516 347 YG Charlottetown PE CAN na FN86ke 1600 4330 2691
2004-02-10 0425 360 JDN 'Jardin' Caramanto CLM sa FJ25eo 1020 4707 2925
2004-02-10 0420 362 GND 'Port Salines' Grand Anse GRD ca FK92ca 1030 150 5480 3405
2004-02-10 0359 280 IPA Rapa Nui (Easter Island) (Isla de Pascua) PAQ oc DG52gu 3000 6598 4099
2004-02-10 0335 275 SWW Sweetwater TX USA na DM92sl 1025 25 986 613
2004-02-10 0326 203 RED Red Lodge MT USA na DN55if 1000 1457 905
2004-02-10 0306 214 CHX Choix (Sinaloa) MEX ca DL56ur 950 1020 659 410
2004-02-10 0303 212 UMO Moa (Holguin) CUB ca FL20mp 1150 350 3786 2352
2004-02-10 0152 450 PPA Puerto Plata DOM ca FK49rs 1030 1030 4240 2634
2004-02-10 0128 283 UZG 'Zarago' Zaragoza (Ciudad de la Habana) CUB ca EL82xw 1296 250 3018 1875
2004-02-10 340 BOG Bogota (Cundinamarca) CLM sa FJ24uu 1025 4872 3027
2004-02-10 215 YSX Ilopango (Lago de Ilopango) SLV ca EK53kq 1020 1500 3025 1879
2004-02-10 326 BHF Freeport (Grand Bahama Island) BAH ca FL06qn 1045 40 3182 1977
2004-02-10 370 LMS San Pedro Sula (Cortes) HND ca EK65bl 1025 50 2981 1852
2004-02-10 350 DAV David (Chiriqui) PNR ca EJ88sj 1035 100 3953 2456
2004-02-10 355 TGU Tegucigalpa (Central District) HND ca EK63jw 1040 100 3151 1958
2004-02-10 353 UHG Holguin (Holguin) CUB ca FL10tr 850 800 3651 2268
2004-02-10 296 UVT Victoria de Las Tunas (Las Tunas) CUB ca FL10mx 895 350 3584 2227
2004-02-10 363 POP Poptun GTM ca EK56gh 1045 500 2794 1736
2004-02-10 375 GUA Guatemala City GTM ca EK44ro 50 2846 1768
2004-02-10 382 POS Port Of Spain TRD ca FK90go 5596 3477
2004-02-10 385 TKL 'Tikal' Santa Elena Y Flores (Peten) GTM ca EK56bv 2717 1688
2004-02-10 387 PV Providenciales TCA ca FL31us 3978 2472
2004-02-10 402 C Camaguey (Camaguey) CUB ca FL11bj 1200 3478 2161
2004-02-10 410 ECB 'Uribia' El Cabo (La Guajira) CLM sa FK32we 835 50 4537 2819
2004-02-10 413 TAM Tampico (Tamaulipas) MEX ca EL12bg 920 1000 1697 1054
2004-02-10 415 SLS Salinas (Guayas) EQA sa EI97mt 4958 3080
2004-02-10 415 CBC West End (Cayman Brac) CYM ca FK09bq 600 3387 2105
2004-02-10 420 V 'Varder' Varadero, Santo Domingo (Villa Clara) CUB ca EL93ga 1045 3068 1906
2004-02-10 425 SGA San Jose (Escuintla) GTM ca EK43nw 1025 200 2876 1787
2004-02-09 0939 239 TCU Tecumseh MI USA na EN82ba 1015 2624 1630
2004-02-09 0937 239 HKF 'Hook Field' Middletown OH USA na EM79sl 1015 25 2511 1560
2004-02-09 0922 272 GP 'Galex' Grand Rapids MN USA na EN37gd 1050 2228 1384
2004-02-09 0909 230 AQE 'Alwood' Greenville NC USA na FM15hq 1045 3107 1930
2004-02-09 0901 227 UZ 'Rally' Rock Hill SC USA na EM94lv 1035 25 2778 1726
2004-02-09 0714 233 OEO Osceola WI USA na EN35ph 1015 25 2143 1331
2004-02-09 0710 242 GM 'Teels' Milwaukee WI USA na EN52xv 1040 25 2333 1450
2004-02-09 0657 365 JN 'Balll' Muncie IN USA na EN70ie 400 2458 1527
2004-02-09 0651 356 AY St Anthony NL CAN na GO11wj 25 4882 3033
2004-02-09 0651 390 JT Stephenville NL CAN na GN08on 450 4672 2903
2004-02-09 0648 323 UWP Argentia NL CAN na GN37ah 1000 5030 3126
2004-02-09 0648 323 W4 Jenpeg MB CAN na EO04xm 63 2683 1667
2004-02-09 0646 281 CA Cartwright NL CAN na GO13lr 410 1000 4846 3011
2004-02-09 0645 280 4B Little Grand Rapids MB CAN na EO22gb 440 2540 1578
2004-02-09 0643 280 QX Gander NL CAN na GN28px 1000 4972 3090
2004-02-09 0636 326 FC Fredericton NB CAN na FN65qw 1600 4059 2522
2004-02-09 0634 304 ZQM Riverview (Moncton) NB CAN na FN76oa 100 4201 2610
2004-02-09 0630 212 TS Timmins ON CAN na EN98gn 400 3060 1901
2004-02-09 0628 207 CL Charlo NB CAN na FN68sa 1000 4102 2549
2004-02-09 0626 404 YSL St Leonard NB CAN na FN67be 1000 3983 2475
2004-02-09 0621 385 NA Natashquan QC CAN na FO90bf 500 4467 2776
2004-02-09 0618 277 YLC Kimmirut NU CAN na FP52bu 1000 4457 2769
2004-02-09 0616 266 ZMM 'Mirabel' Colomban (Montreal) QC CAN na FN25vq 20 3475 2159
2004-02-09 0610 347 YG Charlottetown PE CAN na FN86ke 400 1600 4330 2691
2004-02-09 0608 254 5B Summerside PE CAN na FN86bj 410 250 4275 2656
2004-02-09 0605 253 YTF Alma QC CAN na FN48em 390 25 3739 2323
2004-02-09 0601 248 UL Montreal QC CAN na FN35bl 1000 3495 2172
2004-02-09 0555 244 DG Chute Des Passes QC CAN na FN49iv 410 500 3802 2362
2004-02-09 0550 241 HF Hearst / Rene Fontaine ON CAN na EN89dq 410 100 2974 1848
2004-02-09 0548 239 VO Val-d' Or QC CAN na FN18cb 500 3288 2043
2004-02-09 0541 232 GP Gaspe QC CAN na FN78ts 405 400 4266 2651
2004-02-09 0538 230 YBM St Bruno de Guigues QC CAN na FN07gk 25 3147 1955
2004-02-09 0534 227 YAC Cat Lake ON CAN na EO41cr 390 25 2671 1660
2004-02-09 0524 220 BX Blanc Sablon / Lourdes de Blanc Sablon QC CAN na GO11jk 410 2000 4808 2987
2004-02-09 0516 371 TVY Tooele UT USA na DN30to 1020 25 944 587
2004-02-09 0511 213 YRC 'St. Honore' Chicoutimi QC CAN na FN48km 395 25 3774 2345
2004-02-09 0502 203 KL Schefferville QC CAN na FO64nu 410 1000 4250 2641
2004-02-09 0457 200 HXF Hartford WI USA na EN53ti 1020 25 2329 1447
2004-02-09 0451 278 EOE 'Enoree' Newberry SC USA na EM94eh 415 25 2728 1695
2004-02-09 0439 223 ES 'Andra' Alexandria LA USA na EM31vj 1025 1772 1101
2004-02-09 0437 205 CQA 'Lakefield' Celina OH USA na EN70rl 1030 25 2527 1570
2004-02-09 0426 236 RZT 'Ross Co.' Chillicothe OH USA na EM89lk 995 25 2630 1634
2004-02-09 0419 223 AZW Mt Airy NC USA na EM96rj 1035 2821 1753
2004-02-09 0413 380 UCY 'Cayabo' Cayajabos (Pinar dal Rio) CUB ca EL82nu 1140 100 2946 1830
2004-02-09 0411 296 UVT Victoria de Las Tunas (Las Tunas) CUB ca FL10mx 890 350 3584 2227
2004-02-09 0411 283 UZG 'Zarago' Zaragoza (Ciudad de la Habana) CUB ca EL82xw 1377 250 3018 1875
2004-02-09 0144 283 UZG 'Zarago' Zaragoza (Ciudad de la Habana) CUB ca EL82xw 1300 250 3018 1875
2004-02-08 1136 281 STF 'Bryan' Starkville MS USA na EM53nk 1030 25 2064 1283
2004-02-08 1126 215 AT 'Lican' Watertown SD USA na EN14kt 1035 1844 1145
2004-02-08 1105 407 ZHU Hauts-Bois / St Hubert (Montreal) QC CAN na FN35hn 95 3535 2197
2004-02-08 1056 394 DQ Dawson Creek BC CAN na CO95xr 50 2711 1684
2004-02-08 1052 388 3Z Taber (Muni Apt) AB CAN na DN39vt 1962 1219
2004-02-08 1044 375 FS Fort Simpson NT CAN na CP91is 280 3372 2095
2004-02-08 1042 373 YXK Rimouski QC CAN na FN58rl 25 3959 2460
2004-02-08 1036 356 ZF Yellowknife NT CAN na DP22sj 1000 3367 2092
2004-02-08 1028 341 DB Burwash YT CAN na CP01mi 200 3818 2372
2004-02-08 1026 338 ZEM Eastmain QC CAN na FO02rf 25 3428 2130
2004-02-08 1022 334 YSH 'Smiths Falls' Montague ON CAN na FN14xv 25 3315 2060
2004-02-08 1020 332 XH Medicine Hat AB CAN na DO40oa 50 1983 1232
2004-02-08 1018 321 YSY Sachs Harbour NT CAN na CQ71ix 4504 2799
2004-02-08 1007 290 YYH Taloyoak NU CAN na EP39fm 1000 4291 2666
2004-02-08 0953 272 ZMR 'Mirabel' Montreal QC CAN na FN25wo 200 3479 2162
2004-02-08 0952 261 GD Goderich ON CAN na EN93dr 2847 1769
2004-02-08 0948 254 SM Fort Smith AB CAN na DO49bx 400 3090 1920
2004-02-08 0940 236 YZA Ashcroft BC CAN na CO90iq 400 500 2225 1382
2004-02-08 0930 227 LA 'Wirey' Lakeland FL USA na EL87xw 400 400 2813 1748
2004-02-08 0909 245 HE Hope BC CAN na CN99gj 2103 1306
2004-02-08 0859 245 GTP 'Patten' Thomasville GA USA na EM80cw 1045 2570 1597
2004-02-08 0853 243 OZW Howell MI USA na EN82ap 1035 2637 1638
2004-02-08 0829 400 SLO Salem IL USA na EM58mp 1010 25 2112 1312
2004-02-08 0823 400 EWP Newport AR USA na EM45jp 1025 25 1859 1155
2004-02-08 0821 400 AHQ Wahoo NE USA na EN11qf 1040 1622 1008
2004-02-08 0815 397 AIT Aitkin MN USA na EN36dn 1040 25 2170 1348
2004-02-08 0811 397 JE 'Algoa' Jefferson City MO USA na EM38xn 1050 1851 1150
2004-02-08 0757 345 GF 'Hiser' Grand Forks ND USA na EN17ju 1050 2091 1300
2004-02-08 0725 348 DCI Greeley CO USA na DN70qi 1050 1070 665
2004-02-08 0713 201 BV 'Dewie' Bartlesville OK USA na EM16xu 1025 25 1459 907
2004-02-08 216 ME Matane QC CAN na FN68ft 100 4038 2509
2004-02-07 1410 341 AK 'Roray' Oakland CA USA na CM87vr 1040 25 1195 742
2004-02-07 1352 414 LYI Libby MT USA na DN28gh 1020 100 1832 1138
2004-02-07 1342 347 LFA 'Merrill' Klamath Lake CA USA na CN91ex 1025 45 1440 895
2004-02-07 1340 264 SZT 'Sandpoe' Sandpoint ID USA na DN18rg 1025 100 1848 1148
2004-02-07 1333 260 EU 'Frakk' Junction City (Eugene) OR USA na CN84jf 1035 25 1710 1062
2004-02-07 1332 260 RL 'Riboo' Richland WA USA na DN06ii 1045 1728 1074
2004-02-07 1319 256 LSO Kelso WA USA na CN86nd 1025 1856 1153
2004-02-07 1246 396 PA 'Ritts' Everett WA USA na CN88ub 1050 2006 1246
2004-02-07 1240 382 VKS Vicksburg MS USA na EM42mf 1015 1879 1167
2004-02-07 1239 382 AW 'Waton' Arlington WA USA na CN88wb 1050 50 1999 1242
2004-02-07 1235 356 OPZ Lopez Island WA USA na CN88ml 1065 2071 1287
2004-02-07 1224 328 LAC 'Lacomas' Fort Lewis WA USA na CN87ra 1050 25 1920 1193
2004-02-07 1211 350 LF 'Flufy' Lufkin TX USA na EM21of 1035 1531 951
2004-02-07 1210 350 ON 'Agget' Newport OR USA na CN74xq 1030 1792 1114
2004-02-07 0200 263 TRY Unknown XUN xx
2004-02-07 0157 376 BHC Baxley GA USA na EM81tr 1020 2689 1671
2004-02-07 0152 326 BHF Freeport (Grand Bahama Island) BAH ca FL06qn 1040 40 3182 1977
2004-02-06 1007 394 RWO 'Woody Island' Kodiak AK ALS na BO37us 1030 4209 2615
2004-02-06 0956 280 IPA Rapa Nui (Easter Island) (Isla de Pascua) PAQ oc DG52gu 1025 3000 6598 4099
2004-02-06 0951 332 POA Pahoa HI HWA oc BK29mn 1020 400 4584 2848
2004-02-06 0943 200 YAQ Kasabonika ON CAN na EO53qm 50 2963 1841
2004-02-06 0935 212 YGX Gillam MB CAN na EO26pi 2965 1842
2004-02-06 0931 216 YFA Fort Albany ON CAN na EO92de 200 3238 2012
2004-02-06 0929 218 YUY Rouyn QC CAN na FN08me 500 3212 1996
2004-02-06 0924 224 MO Moosonee ON CAN na EO91qg 400 3251 2020
2004-02-06 0918 235 CN Cochrane ON CAN na EN99mb 100 3117 1937
2004-02-06 0914 236 YZA Ashcroft BC CAN na CO90iq 405 500 2225 1382
2004-02-06 0905 242 YMY Ear Falls ON CAN na EO30hr 50 2515 1563
2004-02-06 0904 243 YVB Bonaventure QC CAN na FN78fc 90 4171 2591
2004-02-06 0900 247 YLH Lansdowne House ON CAN na EO62ae 250 2896 1799
2004-02-06 0857 250 YTJ Terrace Bay ON CAN na EN68kt 100 2713 1686
2004-02-06 0853 260 YAT 'Wapisk' Attawapiskat ON CAN na EO82sw 125 3241 2014
2004-02-06 0849 263 ZQT 'Superior' Thunder Bay ON CAN na EN58jj 50 2561 1591
2004-02-06 0845 272 YQA Muskoka ON CAN na FN05ia 400 3072 1909
2004-02-06 0842 276 YEL Elliot Lake ON CAN na EN86qi 250 2879 1789
2004-02-06 0835 300 YOG Ogoki Post ON CAN na EO71bp 25 2969 1844
2004-02-06 0830 304 D4 Rocanville SK CAN na DO90fl 2176 1352
2004-02-06 0818 332 XH Medicine Hat AB CAN na DO40oa 50 1983 1232
2004-02-06 0815 334 P2 Wetaskiwin AB CAN na DO32hx 2319 1441
2004-02-06 0759 350 D7 Kincardine ON CAN na EN94ee 25 2868 1782
2004-02-06 0755 353 K4 Legend Lake AB CAN na DO37ne 200 2783 1729
2004-02-06 0749 360 PN Port-Menier / Ile Anticosti QC CAN na FN79tu 500 4284 2662
2004-02-06 0735 371 GW Jarpik Kuujjuarapik QC CAN na FO15cg 500 3637 2260
2004-02-06 0733 373 2Q Mont-Laurier QC CAN na FN26go 25 3406 2116
2004-02-06 0731 375 BM Balmoral MB CAN na EO10id 25 2293 1424
2004-02-06 0728 378 RJ Roberval QC CAN na FN38un 500 3692 2294
2004-02-06 0725 377 YRR Greely (Ottawa) ON CAN na FN25fg 25 3363 2090
2004-02-06 0716 384 F8 Victoriaville QC CAN na FN46ac 25 3655 2271
2004-02-06 0708 391 OO Oshawa ON CAN na FN03nw 7 3072 1909
2004-02-06 0707 393 8N Edson AB CAN na DO13sn 50 2416 1501
2004-02-06 0700 414 3U Gatineau QC CAN na FN25fm 85 3370 2094
2004-02-06 0652 404 ZYB Yellek / North Bay ON CAN na FN06fh 50 3098 1925
2004-02-06 0645 263 YGK Kingston ON CAN na FN14qh 1000 3256 2023
2004-02-06 0640 206 QI Yarmouth NS CAN na FN63wt 500 4079 2535
2004-02-06 0626 362 HBK Hinchinbrook AK ALS na BP60wj 1030 1000 1000 4046 2514
2004-02-06 212 UMO Moa (Holguin) CUB ca FL20mp 1150 350 3786 2352
2004-02-06 212 FIO Fiora CTR ca EK70sk 650 100 3637 2260
2004-02-06 215 YSX Ilopango (Lago de Ilopango) SLV ca EK53kq 1500 3025 1879
2004-02-06 227 LCE 'Goloson' La Ceiba (Atlantida) HND ca EK65nr 400 3042 1890
2004-02-06 230 UCL Cayo Largo Del Sur (Cayo Largo) CUB ca EL91fo 800 3132 1946
2004-02-06 232 GT 'Grand Turk' Cockburn Town (Grand Turk Island) TCA ca FL41kk 4103 2549
2004-02-06 248 MBJ Montego Bay JMC ca FK18am 1000 3627 2253
2004-02-06 260 HOR Horcones (Heredia) CTR ca EJ79ux 1000 3686 2290
2004-02-06 340 BOG Bogota (Cundinamarca) CLM sa FJ24uu 4872 3027
2004-02-06 350 DAV David (Chiriqui) PNR ca EJ88sj 100 3953 2456
2004-02-06 353 UHG Holguin (Holguin) CUB ca FL10tr 800 3651 2268
2004-02-06 355 TGU Tegucigalpa (Central District) HND ca EK63jw 100 3151 1958
2004-02-06 353 LLD Lanai HI HWA oc BL10ms 2000 4712 2928
2004-02-04 0744 280 IPA Rapa Nui (Easter Island) (Isla de Pascua) PAQ oc DG52gu 1030 3000 6598 4099
2004-02-04 0653 369 HDI 'Hardwick' Cleveland TN USA na EM75nd 1025 25 2429 1509
2004-02-04 0646 349 FV 'Larez' Indianapolis IN USA na EM69vs 1055 2371 1473
2004-02-04 0606 212 OZ 'Ruckr' Fort Rucker (Ozark) AL USA na EM71cf 1040 1045 2377 1477
2004-02-04 0601 397 ZHA Ancaster (Hamilton) ON CAN na EN93xe 14 2960 1839
2004-02-04 0558 263 YGK Kingston ON CAN na FN14qh 1000 3256 2023
2004-02-04 0555 363 RNB 'Rainbow' Millville NJ USA na FM29kk 1020 50 3306 2054
2004-02-04 0553 396 PH Inukjuak QC CAN na FO08wk 500 3813 2369
2004-02-04 0548 206 QI Yarmouth NS CAN na FN63wt 500 4079 2535
2004-02-04 0544 206 IIB 'Wapsie' Independence IA USA na EN42ak 1025 25 2023 1257
2004-02-04 0540 206 TEL Tell City IN USA na EM68pa 1020 25 2291 1424
2004-02-04 0535 524 AJG Mt Carmel IL USA na EM68do 1025 25 2217 1378
2004-02-04 0533 521 DWH 'David Hooks' Houston TX USA na EM20fd 1020 1483 921
2004-02-04 0531 521 TVX Greencastle IN USA na EM69or 1020 2322 1443
2004-02-04 0530 521 ORC Orange City IA USA na EN12xx 1060 25 1774 1102
2004-02-04 0526 521 GM 'Judky' Greenville SC USA na EM84ts 1080 2657 1651
2004-02-04 0523 517 FN 'Hillz' Clinton IA USA na EN41ts 1080 2108 1310
2004-02-04 0511 515 ONH 'Noah' Jefferson City MO USA na EM38vp 1040 1840 1143
2004-02-04 0451 423 CKP 'Pilot Rock' Cherokee IA USA na EN22fr 1045 25 1790 1112
2004-02-04 0445 420 PK Olathe KS USA na EM28ps 1025 25 1640 1019
2004-02-04 0439 417 HQT 'Harnett' Coats NC USA na FM05pk 1030 25 2988 1856
2004-02-04 0434 419 TX 'Gwnet' Lawrenceville GA USA na EM84ba 1060 25 2523 1568
2004-02-04 0430 417 SLP 'First River' Shelby NC USA na EM95eg 1020 25 2724 1692
2004-02-04 0425 416 RN 'Huggy' Kansas City MO USA na EM29nh 1030 1650 1025
2004-02-04 0414 414 IEB Lebanon MO USA na EM37qn 1030 1045 1772 1101
2004-02-04 0409 414 GL 'Shugr' Goodland KS USA na DM99eh 1020 25 1155 718
2004-02-04 0352 407 PLT 'Platte Center' Columbus NE USA na EN11hl 1060 50 1586 986
2004-02-04 0347 404 SG 'Coole' Springfield MO USA na EM37ge 1055 1690 1050
2004-02-04 0345 404 BAV 'Hardeman' Bolivar TN USA na EM55lf 1030 2051 1274
2004-02-04 0331 400 TRX Trenton MO USA na EN30eb 1040 25 1781 1107
2004-02-04 0205 380 UBX Cuba MO USA na EM48gb 1050 1885 1171
2004-02-04 0200 359 DO 'Dotte' Kansas City MO USA na EM29pf 1020 50 1659 1031
2004-02-04 0149 254 ILJ 'Willard' Springfield MO USA na EM37gh 1040 1694 1052
2004-02-04 0144 371 PUR Marshall MO USA na EM39jb 1045 1773 1101
2004-02-04 0126 254 LLW 'Woodville' Elizabeth City NC USA na FM16ug 1035 50 3201 1989
2004-02-04 0118 332 FIS 'Fish Hook' Key West FL USA na EL94cn 1050 400 2966 1843
2004-02-04 0114 329 AAA 'Abraham' Lincoln IL USA na EN50hd 1015 25 2122 1319
2004-02-04 0109 263 TRY Unknown XUN xx 1000
2004-02-04 0055 217 HZD Huntingdon TN USA na EM56sc 1000 2110 1311
2004-02-04 0049 397 MXO Monticello IA USA na EN42ke 1040 25 2071 1287
2004-02-04 332 FIS 'Fish Hook' Key West FL USA na EL94cn 1050 400 2966 1843
2004-02-03 348 DCI Greeley CO USA na DN70qi 1050 1070 665
2004-02-03 362 BNH Brenham TX USA na EM10tf 2040 25 1402 871
2004-02-03 212 FIO Fiora CTR ca EK70sk 650 100 3637 2260
2004-02-03 215 YSX Ilopango (Lago de Ilopango) SLV ca EK53kq 1025 1500 3025 1879
2004-02-03 227 LCE 'Goloson' La Ceiba (Atlantida) HND ca EK65nr 1035 400 3042 1890
2004-02-03 232 GT 'Grand Turk' Cockburn Town (Grand Turk Island) TCA ca FL41kk 1040 4103 2549
2004-02-03 248 MBJ Montego Bay JMC ca FK18am 1030 1000 3627 2253
2004-02-03 260 HOR Horcones (Heredia) CTR ca EJ79ux 1075 1000 3686 2290
2004-02-03 280 IPA Rapa Nui (Easter Island) (Isla de Pascua) PAQ oc DG52gu 1030 3000 6598 4099
2004-02-03 287 SMR Santa Marta (Magdelena) CLM sa FK21ua 1160 4426 2750
2004-02-03 344 ZIY George Town / Grand Cayman Island CYM ca EK99hg 1035 3277 2036
2004-02-03 345 BGI Bridgetown / Barbados Island BRB ca GK03gb 1025 5635 3501
2004-02-03 350 DAV David (Chiriqui) PNR ca EJ88sj 1035 100 3953 2456
2004-02-03 355 TGU Tegucigalpa (Central District) HND ca EK63jw 1040 100 3151 1958
2004-02-03 360 KIN Kingston JMC ca FK17nx 1025 1000 3756 2334
2004-02-03 360 JDN 'Jardin' Caramanto CLM sa FJ25eo 1025 4707 2925
2004-02-03 360 HIT 'Kaolin Field' Sandersville GA USA na EM83ma 1025 25 2616 1626
2004-02-03 363 POP Poptun GTM ca EK56gh 1045 500 2794 1736
2004-02-03 363 RNB 'Rainbow' Millville NJ USA na FM29kk 1020 50 3306 2054
2004-02-03 369 ZDX Coolidge Saint Johns ATG ca FK97cd 1020 700 5192 3226
2004-02-03 370 LMS San Pedro Sula (Cortes) HND ca EK65bl 1025 50 2981 1852
2004-02-03 370 UCM Camaguey (Camaguey) CUB ca FL11aj 1230 350 3471 2156
2004-02-03 375 GUA Guatemala City GTM ca EK44ro 995 50 2846 1768
2004-02-03 380 UCY 'Cayabo' Cayajabos (Pinar dal Rio) CUB ca EL82nu 1130 100 2946 1830
2004-02-03 382 POS Port Of Spain TRD ca FK90go 1070 5596 3477
2004-02-03 385 TKL 'Tikal' Santa Elena Y Flores (Peten) GTM ca EK56bv 1030 2717 1688
2004-02-03 415 SLS Salinas (Guayas) EQA sa EI97mt 1010 4958 3080
2004-02-02 0656 415 SLS Salinas (Guayas) EQA sa EI97mt 1010 4958 3080
2004-02-02 0655 382 POS Port Of Spain TRD ca FK90go 1070 5596 3477
2004-02-02 0620 370 PAI Pacoima CA USA na DM04tg 970 727 452
2004-02-02 0558 280 IPA Rapa Nui (Easter Island) (Isla de Pascua) PAQ oc DG52gu 3000 6598 4099
2004-02-02 0054 283 UZG 'Zarago' Zaragoza (Ciudad de la Habana) CUB ca EL82xw 880 250 3018 1875
2004-02-01 1943 353 ICL Clarinda IA USA na EN20lr 25 1707 1060
2004-02-01 1914 344 BKU 'Timber' Baker MT USA na DN76ui 80 1675 1040
2004-02-01 1854 341 SG 'Doman' Santa Fe NM USA na DM65wn 583 362
2004-02-01 1839 330 GLE Gainesville TX USA na EM13jr 1293 803
2004-02-01 0653 362 GND 'Port Salines' Grand Anse GRD ca FK92ca 1030 150 5480 3405
2004-02-01 0643 359 YAZ Tofino BC CAN na CN79db 980 2242 1393
2004-02-01 0619 353 JUK 'Mc Kinnon' Brunswick GA USA na EM91hd 1030 25 2793 1735
2004-02-01 0614 353 FOA 'Elm River' Flora IL USA na EM58sq 1010 25 2156 1339
2004-02-01 0607 353 UHG Holguin (Holguin) CUB ca FL10tr 840 800 3651 2268
2004-02-01 0554 345 BGI Bridgetown / Barbados Island BRB ca GK03gb 1025 5635 3501
2004-02-01 0546 280 IPA Rapa Nui (Easter Island) (Isla de Pascua) PAQ oc DG52gu 3000 6598 4099
2004-02-01 0538 212 UMO Moa (Holguin) CUB ca FL20mp 350 3786 2352
2004-02-01 0537 283 UZG 'Zarago' Zaragoza (Ciudad de la Habana) CUB ca EL82xw 875 250 3018 1875
2004-02-01 0523 200 YJ Victoria BC CAN na CN88hp 100 2104 1307
2004-02-01 0446 205 LNH Millen GA USA na EM92av 1025 25 2710 1684
2004-02-01 0420 206 QI Yarmouth NS CAN na FN63wt 410 500 4079 2535
2004-02-01 0358 208 CHQ Charleston MO USA na EM56hu 1025 2039 1267
2004-02-01 0358 208 BDQ 'Bridge' Morrilton AR USA na EM35pd 1025 25 1718 1067
2004-02-01 0350 209 CHU Caledonia MN USA na EN43go 1050 25 2121 1318
2004-02-01 0346 209 RN 'Warri' Mc Minnville TN USA na EM75cs 1025 2347 1459
2004-02-01 0335 380 PAL Unknown XUU xx 1005
2004-02-01 0334 380 UCY 'Cayabo' Cayajabos (Pinar dal Rio) CUB ca EL82nu 1140 100 2946 1830
2004-02-01 0331 380 UBX Cuba MO USA na EM48gb 1050 1885 1171
2004-02-01 353 BKS 'Brooks Co' Falfurrias TX USA na EL07we 25 1357 843
2004-02-01 362 RPX Round Up MT USA na DN56rl 25 1602 995
2004-02-01 382 POS Port Of Spain TRD ca FK90go 5596 3477
2004-02-01 210 CLO Cali (Valle del Cauca) CLM sa FJ13tj 1000 4820 2995
2004-02-01 227 LCE 'Goloson' La Ceiba (Atlantida) HND ca EK65nr 400 3042 1890
2004-02-01 287 SMR Santa Marta (Magdelena) CLM sa FK21ua 4426 2750
2004-02-01 340 BOG Bogota (Cundinamarca) CLM sa FJ24uu 4872 3027
2004-02-01 350 DAV David (Chiriqui) PNR ca EJ88sj 100 3953 2456
2004-02-01 355 TGU Tegucigalpa (Central District) HND ca EK63jw 100 3151 1958
2004-02-01 363 POP Poptun GTM ca EK56gh 500 2794 1736
2004-02-01 370 LMS San Pedro Sula (Cortes) HND ca EK65bl 50 2981 1852
2004-02-01 375 GUA Guatemala City GTM ca EK44ro 50 2846 1768
2004-01-31 2059 329 HMA Hondo TX USA na EL09ji 25 1165 724
2004-01-31 2051 338 LSA Lamesa TX USA na DM92bs 25 854 531
2004-01-31 2006 356 GMZ 'Grindstone Mountain' Bowie TX USA na EM13co 1238 769
2004-01-31 2001 350 RG 'Gally' Oklahoma City OK USA na EM15eh 400 1279 795
2004-01-31 1955 332 CZX Crosbyton TX USA na DM93jo 923 574
2004-01-31 410 ECB 'Uribia' El Cabo (La Guajira) CLM sa FK32we 835 50 4537 2819
2004-01-31 212 FIO Fiora CTR ca EK70sk 650 100 3637 2260
2004-01-31 212 UMO Moa (Holguin) CUB ca FL20mp 350 3786 2352
2004-01-31 215 YSX Ilopango (Lago de Ilopango) SLV ca EK53kq 1020 1500 3025 1879
2004-01-31 232 GT 'Grand Turk' Cockburn Town (Grand Turk Island) TCA ca FL41kk 1040 4103 2549
2004-01-31 230 UCL Cayo Largo Del Sur (Cayo Largo) CUB ca EL91fo 1050 800 3132 1946
2004-01-31 260 HOR Horcones (Heredia) CTR ca EJ79ux 1075 1000 3686 2290
2004-01-31 270 TPF 'Knight' Tampa FL USA na EL87sv 1070 2776 1725
2004-01-31 280 IPA Rapa Nui (Easter Island) (Isla de Pascua) PAQ oc DG52gu 1030 3000 6598 4099
2004-01-31 283 UZG 'Zarago' Zaragoza (Ciudad de la Habana) CUB ca EL82xw 875 250 3018 1875
2004-01-31 340 BOG Bogota (Cundinamarca) CLM sa FJ24uu 1025 4872 3027
2004-01-31 350 DAV David (Chiriqui) PNR ca EJ88sj 1030 100 3953 2456
2004-01-31 360 JDN 'Jardin' Caramanto CLM sa FJ25eo 1020 4707 2925
2004-01-31 365 PAL Palma EQA sa FI07cx 1015 1000 5022 3120
2004-01-31 370 LMS San Pedro Sula (Cortes) HND ca EK65bl 1025 50 2981 1852
2004-01-31 370 UCM Camaguey (Camaguey) CUB ca FL11aj 1225 350 3471 2156
2004-01-31 375 GUA Guatemala City GTM ca EK44ro 1000 50 2846 1768
2004-01-31 380 PAL Unknown XUU xx 1005
2004-01-31 380 UCY 'Cayabo' Cayajabos (Pinar dal Rio) CUB ca EL82nu 1130 100 2946 1830
2004-01-31 382 POS Port Of Spain TRD ca FK90go 1065 5596 3477
2004-01-31 402 C Camaguey (Camaguey) CUB ca FL11bj 1230 3478 2161
2004-01-31 407 LET Leticia (Amazonas) CLM sa FI55at 1040 3000 5921 3679
2004-01-31 415 SLS Salinas (Guayas) EQA sa EI97mt 1015 4958 3080
2004-01-30 1833 337 NA 'Maagg' Santa Ana CA USA na DM13bq 25 666 414
2004-01-30 1828 329 FIA 'Florida' Socorro NM USA na DM64nc 25 436 271
2004-01-30 1824 359 BO 'Ustik' Boise ID USA na DN13uo 400 1352 840
2004-01-30 1821 351 AE 'Dudle' Albuquerque NM USA na DM65pf 518 322
2004-01-30 1815 344 GNC 'Gaines County' Seminole TX USA na DM82qq 25 784 487
2004-01-30 1813 344 FCH 'Chandler' Fressno CA USA na DM06br 400 960 597
2004-01-30 1811 341 ALM Alamogordo NM USA na DM72au 25 474 295
2004-01-30 1808 338 PBT 'Proberta' Red Bluff CA USA na CN80vc 500 1338 831
2004-01-30 1805 338 RYN 'Ryan' Tucson AZ USA na DM42kd 400 16 10
2004-01-30 1800 332 CAO Clayton NM USA na DM86kk 860 534
2004-01-30 1754 329 TAD Trinidad CO USA na DM77th 150 828 514
2004-01-30 1753 326 MCY 'Desert Rock' Mercury NV USA na DM16xo 50 677 421
2004-01-30 1752 326 MA 'Farly' Midland TX USA na DM81ux 400 816 507
2004-01-30 0128 283 UZG 'Zarago' Zaragoza (Ciudad de la Habana) CUB ca EL82xw 885 250 3018 1875
2004-01-29 0701 407 LET Leticia (Amazonas) CLM sa FI55at 1040 3000 5921 3679
2004-01-29 0550 365 PAL Palma EQA sa FI07cx 1015 1000 5022 3120
2004-01-29 0526 266 BR 'Redan' Atlanta GA USA na EM73up 1035 50 2487 1545
2004-01-29 0512 372 UQN 'Onyun' Vidalia GA USA na EM82uf 1025 25 2688 1670
2004-01-29 210 CLO Cali (Valle del Cauca) CLM sa FJ13tj 1025 1000 4820 2995
2004-01-29 248 MBJ Montego Bay JMC ca FK18am 1030 1000 3627 2253
2004-01-29 212 FIO Fiora CTR ca EK70sk 650 100 3637 2260
2004-01-29 415 SLS Salinas (Guayas) EQA sa EI97mt 1010 4958 3080
2004-01-29 415 CBC West End (Cayman Brac) CYM ca FK09bq 600 3387 2105
2004-01-29 415 IEE Platform Irene 25 XON iw CM94po 1070 30 944 586
2004-01-29 230 UCL Cayo Largo Del Sur (Cayo Largo) CUB ca EL91fo 1050 800 3132 1946
2004-01-29 232 GT 'Grand Turk' Cockburn Town (Grand Turk Island) TCA ca FL41kk 1040 4103 2549
2004-01-29 280 IPA Rapa Nui (Easter Island) (Isla de Pascua) PAQ oc DG52gu 1030 3000 6598 4099
2004-01-29 350 DAV David (Chiriqui) PNR ca EJ88sj 1035 100 3953 2456
2004-01-29 353 LLD Lanai HI HWA oc BL10ms 2000 4712 2928
2004-01-29 332 POA Pahoa HI HWA oc BK29mn 400 4584 2848
2004-01-29 370 LMS San Pedro Sula (Cortes) HND ca EK65bl 1025 50 2981 1852
2004-01-29 387 PV Providenciales TCA ca FL31us 1045 3978 2472
2004-01-29 363 POP Poptun GTM ca EK56gh 1045 500 2794 1736
2004-01-28 1408 400 HU 'Lanee' Sacramento CA USA na CM98eo 1030 1035 1200 746
2004-01-28 1404 397 SB 'Petis' San Bernardino CA USA na DM14hb 1045 1000 50 633 393
2004-01-28 1354 359 JWG Watonga OK USA na EM05su 1030 25 1221 758
2004-01-28 1350 359 EMT El Monte CA USA na DM04xc 1030 693 430
2004-01-28 1332 378 CPM Compton CA USA na DM03vv 1025 702 436
2004-01-28 1327 356 SA 'Execc' Sacramento CA USA na CM98fk 1045 25 1184 736
2004-01-28 1324 271 SC 'Jotly' Stockton CA USA na CM97kt 1040 1040 25 1116 694
2004-01-28 1323 245 TLR 'Mefford' Tulare CA USA na DM06id 1030 15 883 549
2004-01-28 1321 233 CV 'Abeta' Arcut (Eureka) CA USA na CN70wx 1030 25 1526 948
2004-01-28 1318 230 SM 'Metre' Sacramento CA USA na CM98et 1213 754
2004-01-28 1309 367 RD 'Lassn' Redding CA USA na CN80uj 1030 1363 847
2004-01-28 1307 515 CL 'Elwha' Port Angeles WA USA na CN88dd 1075 2072 1288
2004-01-28 1259 365 SFF 'Felts' Spokane WA USA na DN17iq 1035 1030 25 1804 1121
2004-01-28 1256 362 BF 'Nolla' Seattle WA USA na CN87tp 1055 1970 1224
2004-01-28 1245 332 POA Pahoa HI HWA oc BK29mn 400 4584 2848
2004-01-28 1243 348 MNC 'Mason Co' Shelton WA USA na CN87kf 1025 1964 1220
2004-01-28 1218 225 LWG Lewisburg (Corvalllis) OR USA na CN84io 1050 1745 1084
2004-01-28 1159 280 IPA Rapa Nui (Easter Island) (Isla de Pascua) PAQ oc DG52gu 3000 6598 4099
2004-01-28 0534 425 SGA San Jose (Escuintla) GTM ca EK43nw 1010 200 2876 1787
2004-01-28 0529 420 PTE Uribia, Portete Bay (La Guajira) CLM sa FK42af 1060 4549 2827
2004-01-28 0525 414 PYD 'Area 19' Groom Lake NV USA na DM27ae 2090 100 719 447
2004-01-28 0523 415 IEE Platform Irene 25 XON iw CM94po 1065 30 944 586
2004-01-28 0521 415 SLS Salinas (Guayas) EQA sa EI97mt 1010 4958 3080
2004-01-28 0517 413 TAM Tampico (Tamaulipas) MEX ca EL12bg 920 1000 1697 1054
2004-01-28 0457 400 OHY 'Coney' Cordele GA USA na EM81bx 1025 25 2544 1581
2004-01-28 0451 380 PAL Unknown XUU xx 1005
2004-01-28 415 CBC West End (Cayman Brac) CYM ca FK09bq 600 3387 2105
2004-01-26 0641 251 PRO Perry IA USA na EN21wt 1025 25 1833 1139
2004-01-26 0628 420 PTE Uribia, Portete Bay (La Guajira) CLM sa FK42af 1065 4549 2827
2004-01-26 0532 344 TV 'Savry' Vicksburg / Tallulah LA USA na EM42lf 995 25 1871 1162
2004-01-26 0528 375 GUA Guatemala City GTM ca EK44ro 995 50 2846 1768
2004-01-26 0515 360 KIN Kingston JMC ca FK17nx 1025 1000 3756 2334
2004-01-26 0458 275 FPR Fort Pierce FL USA na EL97tl 1035 49 2985 1855
2004-01-26 0454 261 CHN Wauchula FL USA na EL97bm 1030 2843 1766
2004-01-26 0238 407 IE 'Campi' Natchitoches LA USA na EM31lp 1030 1690 1050
2004-01-26 0151 242 MEZ Mena AR USA na EM24vn 1020 25 1575 979
2004-01-26 360 JDN 'Jardin' Caramanto CLM sa FJ25eo 4707 2925
2004-01-26 212 FIO Fiora CTR ca EK70sk 100 3637 2260
2004-01-26 227 LCE 'Goloson' La Ceiba (Atlantida) HND ca EK65nr 400 3042 1890
2004-01-26 230 UCL Cayo Largo Del Sur (Cayo Largo) CUB ca EL91fo 800 3132 1946
2004-01-26 232 GT 'Grand Turk' Cockburn Town (Grand Turk Island) TCA ca FL41kk 4103 2549
2004-01-26 248 MBJ Montego Bay JMC ca FK18am 1000 3627 2253
2004-01-26 280 IPA Rapa Nui (Easter Island) (Isla de Pascua) PAQ oc DG52gu 3000 6598 4099
2004-01-26 344 ZIY George Town / Grand Cayman Island CYM ca EK99hg 3277 2036
2004-01-26 350 DAV David (Chiriqui) PNR ca EJ88sj 100 3953 2456
2004-01-26 355 TGU Tegucigalpa (Central District) HND ca EK63jw 100 3151 1958
2004-01-26 370 UCM Camaguey (Camaguey) CUB ca FL11aj 350 3471 2156
2004-01-26 380 UCY 'Cayabo' Cayajabos (Pinar dal Rio) CUB ca EL82nu 100 2946 1830
2004-01-26 382 POS Port Of Spain TRD ca FK90go 5596 3477
2004-01-26 402 C Camaguey (Camaguey) CUB ca FL11bj 1135 3478 2161
2004-01-26 415 CBC West End (Cayman Brac) CYM ca FK09bq 600 3387 2105
2004-01-25 0633 380 PAL Unknown XUU xx 1005
2004-01-25 0628 382 SP 'Huskk' Springfield IL USA na EM59cs 1040 25 2076 1290
2004-01-25 0608 379 RUE Russellville AR USA na EM35kg 1040 25 1682 1045
2004-01-25 0602 375 PSN Palestine TX USA na EM21ds 25 1438 893
2004-01-25 0534 341 DNI Denison TX USA na EM13pt 1020 25 1340 832
2004-01-25 0519 204 LCQ Lake City FL USA na EM80re 1020 25 2704 1680
2004-01-25 0502 257 JHG Hohenwald TN USA na EM65el 1025 2180 1355
2004-01-25 0458 255 FYE Somerville TN USA na EM55he 2020 1255
2004-01-25 0449 257 DT 'Pinck' Denton TX USA na EM13jg 1045 25 1291 802
2004-01-25 0446 257 SQT 'Satellite' Melbourne FL USA na EL98pc 2934 1823
2004-01-25 0430 258 PPF Parsons KS USA na EM27fi 1040 1518 943
2004-01-25 0340 260 OUN Norman OK USA na EM15gf 920 25 1292 803
2004-01-25 0257 407 RVB 'Riverbend' Mobridge SD USA na DN95tn 1055 1743 1083
2004-01-25 0256 407 HRU Herington KS USA na EM18oq 1040 25 1470 913
2004-01-25 0208 230 SM 'Metre' Sacramento CA USA na CM98et 1035 1213 754
2004-01-25 0150 242 LKG 'Lindbergh' Americus GA USA na EM72we 25 2518 1565
2004-01-25 0148 239 BPW Osceola AR USA na EM45xq 1030 25 1964 1220
2004-01-25 0137 233 AZN 'Amazon' St. Joseph MO USA na EM29nv 390 390 25 1677 1042
2004-01-24 0623 425 SGA San Jose (Escuintla) GTM ca EK43nw 995 200 2876 1787
2004-01-24 0618 415 SLS Salinas (Guayas) EQA sa EI97mt 4958 3080
2004-01-24 0612 387 PV Providenciales TCA ca FL31us 3978 2472
2004-01-24 0602 369 ZDX Coolidge Saint Johns ATG ca FK97cd 1020 700 5192 3226
2004-01-24 0601 369 CXU Camilla GA USA na EM71vf 1030 25 2526 1569
2004-01-24 0548 212 FIO Fiora CTR ca EK70sk 650 100 3637 2260
2004-01-24 0545 260 HOR Horcones (Heredia) CTR ca EJ79ux 1075 1000 3686 2290
2004-01-24 0538 350 DAV David (Chiriqui) PNR ca EJ88sj 1050 100 3953 2456
2004-01-24 0535 352 BVG 'Boll Weevil' Enterprise AL USA na EM71ai 1045 2359 1466
2004-01-24 0513 382 VKS Vicksburg MS USA na EM42mf 1020 1879 1167
2004-01-24 0512 382 DER Alexander City AL USA na EM72av 1030 25 2339 1453
2004-01-24 0509 382 XGV Fadette (Fort Rucker) AL USA na EM71fa 1025 2404 1494
2004-01-24 0503 410 MSB 'Monarch' Iola KS USA na EM27hs 1050 25 1547 961
2004-01-24 0458 410 GG 'Veels' Longview TX USA na EM22ok 1518 943
2004-01-24 0448 410 XBR 'Brantley' Fort Rucker (Ozark) AL USA na EM61un 2325 1444
2004-01-24 0437 374 FLZ Fort Rucker 'Florala Airport' AL USA na EM61ub 1045 2333 1450
2004-01-24 0432 362 TC 'Tuske' Tuscaloosa AL USA na EM63dd 1050 2174 1351
2004-01-24 230 UCL Cayo Largo Del Sur (Cayo Largo) CUB ca EL91fo 800 3132 1946
2004-01-24 287 SMR Santa Marta (Magdelena) CLM sa FK21ua 4426 2750
2004-01-24 355 TGU Tegucigalpa (Central District) HND ca EK63jw 100 3151 1958
2004-01-24 360 KIN Kingston JMC ca FK17nx 1000 3756 2334
2004-01-24 380 UCY 'Cayabo' Cayajabos (Pinar dal Rio) CUB ca EL82nu 100 2946 1830
2004-01-24 248 MBJ Montego Bay JMC ca FK18am 1000 3627 2253
2004-01-23 0423 274 FR Fort Resolution NT CAN na DP31ed 3225 2004
2004-01-23 0417 283 IML Imperial NE USA na DN90em 1020 25 1246 774
2004-01-23 0351 278 IL 'Iresh' Killeen TX USA na EM11da 1040 25 1260 783
2004-01-23 0334 275 SWW Sweetwater TX USA na DM92sl 1020 25 986 613
2004-01-22 0603 251 JZY Macomb IL USA na EN40rm 1030 25 2043 1269
2004-01-22 0549 240 CJ 'Calde' Springfield IL USA na EM59et 400 2091 1299
2004-01-22 0542 233 AZN 'Amazon' St. Joseph MO USA na EM29nv 390 25 1677 1042
2004-01-22 0540 233 QN Nakina ON CAN na EO60qe 405 400 2830 1758
2004-01-22 0527 209 DKB De Kalb IL USA na EN51pw 1030 25 2242 1393
2004-01-22 0513 215 ML 'Molli' Moline IL USA na EN41qk 1035 2074 1289
2004-01-22 0501 242 HWQ Harlowton MT USA na DN56ck 1070 80 1587 986
2004-01-22 0452 242 PJN 'Plantation' Fort Lauderdale FL USA na EL96vd 1035 3049 1894
2004-01-22 0443 227 LCE 'Goloson' La Ceiba (Atlantida) HND ca EK65nr 400 3042 1890
2004-01-22 0442 219 AY 'Wiket' Waycross GA USA na EM81th 1035 2696 1675
2004-01-22 0435 212 CFV Coffeyville KS USA na EM27fc 1030 25 1510 938
2004-01-22 0429 360 HIT 'Kaolin Field' Sandersville GA USA na EM83ma 1025 25 2616 1626
2004-01-22 0411 204 LCQ Lake City FL USA na EM80re 1020 25 2704 1680
2004-01-22 0354 242 MMI 'Mc Minn Co.' Athens TN USA na EM75rj 1015 25 2459 1528
2004-01-21 0524 234 RYD Green Cove Springs FL USA na EL99ex 1030 2795 1737
2004-01-21 0520 242 LKG 'Lindbergh' Americus GA USA na EM72we 1015 25 2518 1565
2004-01-21 0454 260 BVQ 'Beaver Creek' Glasgow KY USA na EM67xa 25 2335 1451
2004-01-21 0453 260 JH 'Brenz' Jackson MS USA na EM42uj 1939 1205
2004-01-21 0452 260 MTH Marathon FL USA na EL94kr 1030 100 3020 1877
2004-01-21 0445 263 TRY Unknown XUN xx
2004-01-21 0442 269 OSX Kosciusko MS USA na EM53fc 1030 25 2004 1245
2004-01-21 0422 332 GUO Georgetown TX USA na EM10dq 1020 1267 787
2004-01-21 0418 335 LEE Leesburg FL USA na EL98ct 1020 25 2810 1746
2004-01-21 0417 335 CV 'Hisan' Clovis NM USA na DM84ji 1030 759 472
2004-01-21 0356 346 PCM Plant City FL USA na EL88wa 1035 25 2803 1742
2004-01-21 0353 357 EYA 'Eastport' Jacksonville FL USA na EM90ek 1015 25 2784 1730
2004-01-21 0331 423 OC 'Jumpi' Ocala FL USA na EL89vb 1025 2764 1717
2004-01-21 0326 408 SFB Sanford FL USA na EL98js 1020 25 2866 1781
2004-01-21 0323 405 UTX 'United' Jupiter FL USA na EL96tv 1070 25 3005 1867
2004-01-21 0318 392 VEP Vero Beach FL USA na EL97sp 1040 49 2972 1846
2004-01-21 0302 395 GD Guadalajara (Jalisco) MEX ca DL80jl 940 1000 1512 940
2004-01-21 380 UCY 'Cayabo' Cayajabos (Pinar dal Rio) CUB ca EL82nu 100 2946 1830
2004-01-21 222 CUW Chihuahua MEX ca DL78an 400 626 389
2004-01-21 227 LCE 'Goloson' La Ceiba (Atlantida) HND ca EK65nr 400 3042 1890
2004-01-21 230 UCL Cayo Largo Del Sur (Cayo Largo) CUB ca EL91fo 800 3132 1946
2004-01-21 245 AGG 'Leguas' Agualeguas (Nuevo Leon) MEX ca EL06fi 25 1282 796
2004-01-21 248 FRT 'Fairmont' Spartanburg SC USA na EM94av 400 2695 1674
2004-01-21 248 MBJ Montego Bay JMC ca FK18am 1000 3627 2253
2004-01-21 280 IPA Rapa Nui (Easter Island) (Isla de Pascua) PAQ oc DG52gu 3000 6598 4099
2004-01-21 280 MPG Progreso (Yucatan) MEX ca EL51dg 1000 2427 1508
2004-01-21 287 SMR Santa Marta (Magdelena) CLM sa FK21ua 4426 2750
2004-01-21 330 CZM Cozumel (Quintana Roo) MEX ca EL60mm 2711 1684
2004-01-21 344 ZIY George Town / Grand Cayman Island CYM ca EK99hg 3277 2036
2004-01-21 355 TGU Tegucigalpa (Central District) HND ca EK63jw 100 3151 1958
2004-01-21 370 UCM Camaguey (Camaguey) CUB ca FL11aj 350 3471 2156
2004-01-21 382 POS Port Of Spain TRD ca FK90go 5596 3477
2004-01-21 415 CBC West End (Cayman Brac) CYM ca FK09bq 600 3387 2105
2004-01-20 0723 415 CBC West End (Cayman Brac) CYM ca FK09bq 600 3387 2105
2004-01-20 0723 415 SLS Salinas (Guayas) EQA sa EI97mt 4958 3080
2004-01-20 0721 387 PV Providenciales TCA ca FL31us 1045 3978 2472
2004-01-20 0717 370 UCM Camaguey (Camaguey) CUB ca FL11aj 1230 350 3471 2156
2004-01-20 0714 369 CXU Camilla GA USA na EM71vf 1035 25 2526 1569
2004-01-20 0708 360 HIT 'Kaolin Field' Sandersville GA USA na EM83ma 1025 25 2616 1626
2004-01-20 0708 360 KIN Kingston JMC ca FK17nx 1025 1000 3756 2334
2004-01-20 0707 355 TGU Tegucigalpa (Central District) HND ca EK63jw 1040 100 3151 1958
2004-01-20 0703 344 ZIY George Town / Grand Cayman Island CYM ca EK99hg 1035 3277 2036
2004-01-20 0701 340 BOG Bogota (Cundinamarca) CLM sa FJ24uu 1025 4872 3027
2004-01-20 0656 287 SMR Santa Marta (Magdelena) CLM sa FK21ua 1160 4426 2750
2004-01-20 0655 280 IPA Rapa Nui (Easter Island) (Isla de Pascua) PAQ oc DG52gu 3000 6598 4099
2004-01-20 0647 260 GHJ 'Stonia' Gastonia NC USA na EM95ke 1040 2769 1721
2004-01-20 0622 248 MBJ Montego Bay JMC ca FK18am 1000 3627 2253
2004-01-20 0621 248 FRT 'Fairmont' Spartanburg SC USA na EM94av 1035 400 2695 1674
2004-01-20 0618 245 AGG 'Leguas' Agualeguas (Nuevo Leon) MEX ca EL06fi 1070 25 1282 796
2004-01-20 0617 232 GT 'Grand Turk' Cockburn Town (Grand Turk Island) TCA ca FL41kk 1040 4103 2549
2004-01-20 0615 227 LCE 'Goloson' La Ceiba (Atlantida) HND ca EK65nr 1035 400 3042 1890
2004-01-20 0614 222 CUW Chihuahua MEX ca DL78an 945 400 626 389
2004-01-20 0613 215 YSX Ilopango (Lago de Ilopango) SLV ca EK53kq 1025 1500 3025 1879
2004-01-20 0611 212 FIO Fiora CTR ca EK70sk 650 100 3637 2260
2004-01-20 0607 382 POS Port Of Spain TRD ca FK90go 1070 5596 3477
2004-01-20 0549 248 MOB 'Wisle' Mobile AL USA na EM50us 1035 400 2151 1336
2004-01-20 0546 211 AN 'Bogga' Anniston AL USA na EM73am 1045 25 2334 1450
2004-01-20 0536 425 SGA San Jose (Escuintla) GTM ca EK43nw 995 200 2876 1787
2004-01-20 0531 423 AU 'Opole' Auburn AL USA na EM72gm 1060 2389 1485
2004-01-20 0518 263 TRY Unknown XUN xx
2004-01-20 0516 388 AM 'Picny' Tampa FL USA na EL87ru 400 2769 1721
2004-01-20 0514 379 TL 'Wakul' Tallahassee FL USA na EM70th 400 2529 1571
2004-01-20 0512 356 PB 'Rubin' West Palm Beach FL USA na EL96vq 3028 1882
2004-01-20 0510 344 JA 'Dinns' Jacksonville FL USA na EM90cl 400 2768 1720
2004-01-20 0508 206 VNC Venice FL USA na EL87sb 25 2804 1742
2004-01-19 1432 260 EU 'Frakk' Junction City (Eugene) OR USA na CN84jf 25 1710 1062
2004-01-19 1427 240 BVS 'Skagit / Bay View' Burlington / Mt Vernon WA USA na CN88sl 1040 25 2051 1275
2004-01-19 1424 236 HQ 'Abern' Hoquiam WA USA na CN86cx 1030 1972 1226
2004-01-19 1421 219 GAV Gustavus AK ALS na CO28dk 3459 2149
2004-01-19 1416 206 EF 'Champion' Castlegar BC CAN na DN19eg 1030 100 1978 1229
2004-01-19 1414 206 PWT 'Kitsap' Bremerton National Airport WA USA na CN87ol 1005 25 1972 1226
2004-01-19 1309 308 ZZD Calmar (Edmonton Intl Apt) AB CAN na DO33eg 2353 1462
2004-01-19 1255 293 CJJ Cresco IA USA na EN33wi 25 2061 1280
2004-01-19 0543 212 HMQ Homer LA USA na EM32ls 995 1680 1044
2004-01-19 0539 280 IPA Rapa Nui (Easter Island) (Isla de Pascua) PAQ oc DG52gu 3000 6598 4099
2004-01-19 0534 307 LUX Laurens SC USA na EM94am 25 2696 1675
2004-01-19 0114 311 FET Fremont NE USA na EN11rk 1640 1019
2004-01-18 1434 302 PU 'Mertz' Pueblo CO USA na DM78qg 1050 887 551
2004-01-18 1423 302 XY Whitehorse YT CAN na CP20ks 410 3631 2256
2004-01-18 1414 293 MB 'Mill Bay' Victoria BC CAN na CN88fq 990 25 2115 1314
2004-01-18 1354 300 LAP La Paz (Baja California) MEX ca DL44tb 1000 905 562
2004-01-18 1334 300 LAP La Paz (Baja California) MEX ca DL44tb 990 1000 905 562
2004-01-18 1331 290 OLR Chickasha OK USA na EM15ac 1025 25 1245 774
2004-01-18 1329 284 PQN Pipestone MN USA na EN13ux 1040 25 1829 1136
2004-01-18 0626 323 EBS Webster City IA USA na EN32bk 25 1886 1172
2004-01-18 0606 284 GPH Mosby MO USA na EM29ui 1698 1055
2004-01-18 0306 286 EYQ 'Weiser' Houston TX USA na EL29ew 25 1480 920
2004-01-17 1442 348 MNC 'Mason Co' Shelton WA USA na CN87kf 1025 1964 1220
2004-01-17 1428 371 YK 'Donny' Yakima WA USA na CN96tm 1040 1784 1109
2004-01-17 1427 362 HBK Hinchinbrook AK ALS na BP60wj 1000 4046 2514
2004-01-17 1417 388 GE 'Phort' Spokane WA USA na DN17gq 1040 1025 25 1808 1124
2004-01-17 1416 356 HI 'Abate' Portland OR USA na CN85lp 1045 1821 1131
2004-01-17 1415 260 EU 'Frakk' Junction City (Eugene) OR USA na CN84jf 1040 25 1710 1062
2004-01-17 1414 266 SLE 'Turno' Salem OR USA na CN84mu 1040 50 1749 1087
2004-01-17 1400 286 8G Stettler AB CAN na DO32oh 395 2242 1393
2004-01-17 1354 302 QW North Battleford SK CAN na DO52tt 400 40 2302 1430
2004-01-17 1334 287 PE Peace River AB CAN na DO16fe 410 56 2716 1688
2004-01-17 1329 292 ZET Devon (Edmonton Intl Apt) AB CAN na DO33di 390 25 2363 1468
2004-01-17 1319 305 Z1 Three Hills AB CAN na DO31jq 390 25 2175 1352
2004-01-17 1308 311 9Y Pincher Creek AB CAN na DN39am 395 50 1943 1207
2004-01-17 1253 300 LAP La Paz (Baja California) MEX ca DL44tb 990 1000 905 562
2004-01-17 1231 293 FBY Fairbury NE USA na EN10ke 1010 50 1524 947
2004-01-17 1219 356 MEF Medford OR USA na CN82nj 1030 1045 1546 960
2004-01-17 1138 323 LTY Chester MT USA na DN48mm 1060 1816 1128
2004-01-17 1133 323 W4 Jenpeg MB CAN na EO04xm 410 63 2683 1667
2004-01-17 1130 317 VC La Ronge SK CAN na DO75ic 375 500 2586 1607
2004-01-17 1122 300 YIV Island Lake MB CAN na EO23qu 405 500 2735 1700
2004-01-17 1119 299 TV Turner Valley AB CAN na DO20ts 410 200 2085 1295
2004-01-17 1118 290 QR Regina SK CAN na DO70ri 380 100 2088 1297
2004-01-17 0436 323 HJH Hebron NE USA na EN10ed 1020 25 1485 923
2004-01-17 0335 284 VIV Vivian LA USA na EM22xu 1035 1586 985
2004-01-17 0334 284 AUV 'Arbuckle' Ardmore OK USA na EM14kd 1060 25 1305 811
2004-01-17 0247 287 SMR Santa Marta (Magdelena) CLM sa FK21ua 1160 4426 2750
2004-01-17 0151 287 RBD 'Redbird' Dallas TX USA na EM12nq 1035 50 1322 821
2004-01-17 0145 293 CRD Conrad MT USA na DN48be 1035 25 1780 1106
2004-01-17 0142 293 TOR Torrington WY USA na DN72wb 1030 25 1253 778
2004-01-17 0138 296 LGD La Grande OR USA na DN15ai 1020 25 1583 984
2004-01-17 0129 323 HHW Hugo OK USA na EM24fa 1030 25 1449 900
2004-01-17 0128 323 GR 'Starn' Fort Hood (Kileen) TX USA na EM11be ~1020 ~1020 1242 772
2004-01-17 0126 324 ID 'Uconn' Idaho Falls ID USA na DN43ao 1020 1272 790
2004-01-17 0121 320 YQF Red Deer AB CAN na DO32bd 50 2231 1386
2004-01-17 0120 321 FT 'Skipi' Bennett (Denver) CO USA na DM79st 1040 1035 1029 639
2004-01-17 0116 316 MII Caddo Mills TX USA na EM13va 1020 25 1383 860
2004-01-17 0112 314 GGU Prague OK USA na EM15pm 1020 25 1365 848
2004-01-17 0111 311 MVI Monte Vista CO USA na DM67xm 1040 743 462
2004-01-17 0110 311 BFE Brownfield TX USA na DM83ve 1020 826 513
2004-01-17 0104 305 YQ Churchill / Eastern Creek MB CAN na EO38as 500 3217 1999
2004-01-17 0101 305 ONO Ontario OR USA na DN14la 1020 1418 881
2004-01-17 0100 305 LST Lone Star TX USA na EM22pw 1015 1523 947
2004-01-17 0100 305 RO 'Topan' Roswell NM USA na DM73si 1040 1030 400 621 386
2004-01-17 0053 296 SP 'Shawn' Wichita Falls TX USA na EM03sv 1040 1040 1180 733
2004-01-17 0052 296 LQR Larned KS USA na EM08ke 1025 25 1264 785
2004-01-17 0042 290 AOP 'Antelope' Rock Springs WY USA na DN51lo 1030 100 1061 659
2004-01-17 0035 286 EKS 'Big Sky' Ennis MT USA na DN45eg 1035 1456 904
2004-01-17 0029 284 MXR 'Maxwell' Raton NM USA na DM76rq 1030 772 480
2004-01-17 0028 284 BEA Beeville TX USA na EL18ci 1010 1333 828
2004-01-17 0026 284 QD The Pas MB CAN na DO93lx 500 2547 1583
2004-01-17 0022 284 DPG 'Dugway' Dugway Proving Ground UT USA na DN30me 1030 907 564
2004-01-16 0119 266 LLN Levelland TX USA na DM83tn 1010 816 507
2004-01-16 0115 264 JUY 'Judd' Andelusia AL USA na EM61th 1040 25 2321 1442
2004-01-16 0101 263 TRY Unknown XUN xx 1005
2004-01-16 0057 260 OUN Norman OK USA na EM15gf 930 25 1292 803
2004-01-14 1355 242 HWQ Harlowton MT USA na DN56ck 1055 80 1587 986
2004-01-14 1305 271 SC 'Jotly' Stockton CA USA na CM97kt 1035 25 1116 694
2004-01-14 1232 356 SA 'Execc' Sacramento CA USA na CM98fk 1050 25 1184 736
2004-01-14 1225 266 FA 'Hilan' Fresno CA USA na DM06er 1045 941 584
2004-01-14 1210 280 IPA Rapa Nui (Easter Island) (Isla de Pascua) PAQ oc DG52gu 1030 3000 6598 4099
2004-01-14 0504 375 GUA Guatemala City GTM ca EK44ro 950 50 2846 1768
2004-01-14 0438 365 PBC 'Maury Co' Columbia / Mount Pleasant TN USA na EM65ko 1020 25 2226 1383
2004-01-14 0429 388 HAH 'Natchez-Adams Co' Natchez MS USA na EM41iq 1020 1854 1152
2004-01-14 0421 413 MC 'Ferni' Mc Comb MS USA na EM41rg 405 25 1930 1199
2004-01-14 0354 346 THJ 'Tallahala' Laurel MS USA na EM51jq 855 25 2049 1273
2004-01-14 0350 356 PB 'Rubin' West Palm Beach FL USA na EL96vq 1050 3028 1882
2004-01-14 0340 344 JA 'Dinns' Jacksonville FL USA na EM90cl 1070 400 2768 1720
2004-01-14 0335 270 TPF 'Knight' Tampa FL USA na EL87sv 1070 2776 1725
2004-01-14 0316 254 ILJ 'Willard' Springfield MO USA na EM37gh 1040 1694 1052
2004-01-14 0311 234 RYD Green Cove Springs FL USA na EL99ex 1030 2795 1737
2004-01-14 0301 206 VNC Venice FL USA na EL87sb 414 25 2804 1742
2004-01-14 0259 326 PKZ 'Pickens' Pensacola FL USA na EM60jk 1050 400 2260 1404
2004-01-14 0144 227 LCE 'Goloson' La Ceiba (Atlantida) HND ca EK65nr 1040 400 3042 1890
2004-01-14 0137 230 UCL Cayo Largo Del Sur (Cayo Largo) CUB ca EL91fo 1030 800 3132 1946
2004-01-14 0123 375 VMR Vermillion SD USA na EN12ms 1030 1701 1057
2004-01-14 0120 245 FS 'Rokky' Sioux Falls SD USA na EN13ol 1040 100 1762 1095
2004-01-14 0049 404 OLF Wolf Point MT USA na DN78ec 1020 100 1825 1134
2004-01-14 0045 320 HTN 'Horton' Miles City MT USA na DN76aj 1030 100 1636 1017
2004-01-14 0038 275 HIN 'Whitney' Chadron NE USA na DN82kt 1020 25 1367 849
2004-01-11 1418 385 MR 'Munso' Monterey CA USA na CM96ao 50 1121 697
2004-01-11 1416 379 SF 'Brijj' San Francisco CA USA na CM87un 25 1193 741
2004-01-11 1410 253 UR 'Vinee' Burbank CA USA na DM04te 25 725 450
2004-01-11 1342 249 JC 'Jorge' San Jose CA USA na CM97bi 1149 714
2004-01-11 1333 241 EZY Elk City OK USA na EM05hk 1128 701
2004-01-11 1326 236 DEH Decorah IA USA na EN43dg 25 2085 1296
2004-01-11 1324 236 CTK Canton IL USA na EN40xn 25 2084 1295
2004-01-11 1302 228 BCZ 'Choctaw' Butler AL USA na EM52wc 25 2145 1333
2004-01-11 1252 224 BH 'Mc Den' Birmingham AL USA na EM63nm 400 2249 1397
2004-01-11 1223 209 HGT '(Fort) Hunter Liggett' Jolon CA USA na CM95jx 1033 642
2004-01-11 0129 220 VI 'Vilia' Vasalia CA USA na DM06ig 890 553
2004-01-11 0110 521 TO 'Biloy' Topeka KS USA na EM29dc 25 1575 978
2004-01-11 0045 230 NRN Norton KS USA na EM09bu 25 1309 814
2004-01-08 0716 425 SGA San Jose (Escuintla) GTM ca EK43nw 1005 200 2876 1787
2004-01-08 0623 222 CUW Chihuahua MEX ca DL78an 945 400 626 389
2004-01-08 0605 212 UC 'Obion' Union City TN USA na EM56mh 1035 25 2068 1285
2004-01-08 0603 212 HMQ Homer LA USA na EM32ls 1040 1680 1044
2004-01-08 0525 480 RW Seven Lakes CO USA na DM78 885 550
2004-01-08 0521 450 PPA Puerto Plata DOM ca FK49rs 1030 1030 4240 2634
2004-01-08 0511 430 VA Varadero (Villa Clara) CUB ca EL92fx 1015 3062 1903
2004-01-08 0507 426 UV 'Tunng' Oxford MS USA na EM54ej 1005 25 1994 1239
2004-01-08 0503 424 RVJ 'Prison' Reidsville GA USA na EM82wb 1020 25 2707 1682
2004-01-08 0435 420 TU 'Veron' Tupelo MS USA na EM54oe 400 395 25 2070 1286
2004-01-08 0419 416 BKL 'Burke Lakefront' Cleveland OH USA na EN91em 1065 2791 1734
2004-01-08 0415 411 HAE Hannibal MO USA na EM49gr 1045 1939 1205
2004-01-08 0407 411 RD 'Bodey' Redmond OR USA na CN94lh 400 1607 999
2004-01-08 0351 209 HGT '(Fort) Hunter Liggett' Jolon CA USA na CM95jx 1040 1033 642
2004-01-08 0347 378 OT 'Emire' North Bend OR USA na CN73uj 1050 1706 1060
2004-01-08 0341 358 TKX Kennett MO USA na EM46xf 1040 1971 1224
2004-01-08 0338 358 TNY 'Kelso' Fayetteville TN USA na EM65rd 1025 25 2277 1415
2004-01-08 0331 255 FYE Somerville TN USA na EM55he 1025 2020 1255
2004-01-08 0326 203 DMZ Dickson TN USA na EM66gd 1035 25 2200 1367
2004-01-08 0302 389 EN 'Codee' Kenosha WI USA na EN52xn 1055 2319 1441
2004-01-08 0257 356 RCX 'Rusk County' Ladysmith WI USA na EN45lm 1010 2262 1406
2004-01-08 0254 224 GVA 'Geneva' Henderson KY USA na EM67ct 1020 25 2194 1363
2004-01-08 0249 203 PVB Platteville WI USA na EN42sq 1020 25 2145 1332
2004-01-08 0239 350 LF 'Flufy' Lufkin TX USA na EM21of 1040 1531 951
2004-01-08 212 FIO Fiora CTR ca EK70sk 650 100 3637 2260
2004-01-07 0527 360 HIT 'Kaolin Field' Sandersville GA USA na EM83ma 25 2616 1626
2004-01-07 0523 263 TRY Unknown XUN xx
2004-01-07 0517 360 JDN 'Jardin' Caramanto CLM sa FJ25eo 1020 4707 2925
2004-01-07 0450 212 FIO Fiora CTR ca EK70sk 650 100 3637 2260
2004-01-07 0445 212 UMO Moa (Holguin) CUB ca FL20mp 1125 350 3786 2352
2004-01-07 0425 246 FAU Fairview OK USA na EM06sg 1030 1234 767
2004-01-07 0132 404 HU 'Saltt' Hutchinson KS USA na EM18ac 1040 25 1351 839
2004-01-07 0104 407 RVB 'Riverbend' Mobridge SD USA na DN95tn 1050 1743 1083
2004-01-07 0054 414 DUX 'Durrett' Dumas TX USA na DM85xu 1010 25 917 570
2004-01-07 400 HU 'Lanee' Sacramento CA USA na CM98eo 1200 746
2004-01-07 395 HU 'Tutte' Houston TX USA na EL29ho 1513 940
2004-01-07 222 CUW Chihuahua MEX ca DL78an 400 626 389
2004-01-07 227 LCE 'Goloson' La Ceiba (Atlantida) HND ca EK65nr 400 3042 1890
2004-01-07 230 UCL Cayo Largo Del Sur (Cayo Largo) CUB ca EL91fo 800 3132 1946
2004-01-07 232 GT 'Grand Turk' Cockburn Town (Grand Turk Island) TCA ca FL41kk 4103 2549
2004-01-07 245 AGG 'Leguas' Agualeguas (Nuevo Leon) MEX ca EL06fi 25 1282 796
2004-01-07 248 MBJ Montego Bay JMC ca FK18am 1000 3627 2253
2004-01-07 270 OAX Oaxaca MEX ca EK16pw 2220 1379
2004-01-07 280 IPA Rapa Nui (Easter Island) (Isla de Pascua) PAQ oc DG52gu 3000 6598 4099
2004-01-07 282 CED Isla Cedros (Baja California) MEX ca DL28ja 618 384
2004-01-07 287 SMR Santa Marta (Magdelena) CLM sa FK21ua 4426 2750
2004-01-07 330 CZM Cozumel (Quintana Roo) MEX ca EL60mm 2711 1684
2004-01-07 340 BOG Bogota (Cundinamarca) CLM sa FJ24uu 4872 3027
2004-01-07 344 ZIY George Town / Grand Cayman Island CYM ca EK99hg 3277 2036
2004-01-07 355 TGU Tegucigalpa (Central District) HND ca EK63jw 100 3151 1958
2004-01-07 360 KIN Kingston JMC ca FK17nx 1000 3756 2334
2004-01-07 375 GUA Guatemala City GTM ca EK44ro 50 2846 1768
2004-01-07 382 POS Port Of Spain TRD ca FK90go 5596 3477
2004-01-07 385 TKL 'Tikal' Santa Elena Y Flores (Peten) GTM ca EK56bv 2717 1688
2004-01-06 0833 420 PTE Uribia, Portete Bay (La Guajira) CLM sa FK42af 1070 4549 2827
2004-01-06 0831 413 CBC Anahuac TX USA na EL29qs 25 1578 981
2004-01-06 0830 391 DDP San Juan / Dorado / Luiz Munoz Marin Intl PR PTR ca FK68tl 2000 4694 2917
2004-01-06 0827 387 PV Providenciales TCA ca FL31us 3978 2472
2004-01-06 0823 382 POS Port Of Spain TRD ca FK90go 5596 3477
2004-01-06 0822 375 GUA Guatemala City GTM ca EK44ro 995 50 2846 1768
2004-01-06 0821 370 UCM Camaguey (Camaguey) CUB ca FL11aj 350 3471 2156
2004-01-06 0819 370 LMS San Pedro Sula (Cortes) HND ca EK65bl 50 2981 1852
2004-01-06 0818 360 KIN Kingston JMC ca FK17nx 1000 3756 2334
2004-01-06 0817 355 TGU Tegucigalpa (Central District) HND ca EK63jw 100 3151 1958
2004-01-06 0812 344 ZIY George Town / Grand Cayman Island CYM ca EK99hg 3277 2036
2004-01-06 0810 340 BOG Bogota (Cundinamarca) CLM sa FJ24uu 4872 3027
2004-01-06 0808 273 FK 'Airbe' Fort Campbell (Hopkinsville) KY USA na EM66hr 1040 25 2214 1376
2004-01-06 0806 270 OAX Oaxaca MEX ca EK16pw 2220 1379
2004-01-06 0803 260 HOR Horcones (Heredia) CTR ca EJ79ux 1075 1000 3686 2290
2004-01-06 0803 248 MBJ Montego Bay JMC ca FK18am 1000 3627 2253
2004-01-06 0759 245 AGG 'Leguas' Agualeguas (Nuevo Leon) MEX ca EL06fi 1070 25 1282 796
2004-01-06 0757 230 UCL Cayo Largo Del Sur (Cayo Largo) CUB ca EL91fo 800 3132 1946
2004-01-06 0755 227 LCE 'Goloson' La Ceiba (Atlantida) HND ca EK65nr 400 3042 1890
2004-01-06 0754 215 YSX Ilopango (Lago de Ilopango) SLV ca EK53kq 1500 3025 1879
2004-01-06 0751 353 LLD Lanai HI HWA oc BL10ms 2000 4712 2928
2004-01-06 0750 332 POA Pahoa HI HWA oc BK29mn 400 4584 2848
2004-01-06 0749 263 TRY Unknown XUN xx
2004-01-06 0738 399 ZHD 'Thunder' Dryden ON CAN na EN39qt 25 2477 1539
2004-01-06 0722 368 ZYZ Toronto (The Queensway) ON CAN na FN03fo 25 3011 1871
2004-01-06 0716 360 PN Port-Menier / Ile Anticosti QC CAN na FN79tu 500 4284 2662
2004-01-06 0649 283 PT Pelee Island ON CAN na EN81ps 405 100 2710 1684
2004-01-06 0644 273